Time;durP1;ratioP1;P1;durP2;ratioP2;P2;SDS_P1;SDS_P2;PMS_P1;PMS_P2;Temp;Humidity;BMP_temperature;BMP_pressure;BME280_temperature;BME280_humidity;BME280_pressure;Samples;Min_cycle;Max_cycle;Signal;HPM_P1;HPM_P2
2024/03/27 00:00:29;;;;;;;6.05;2.83;;;11.90;99.90;;;;;;5078329;28;20020;-88
2024/03/27 00:02:55;;;;;;;5.28;2.78;;;11.80;99.90;;;;;;5078045;28;20043;-87
2024/03/27 00:05:20;;;;;;;5.78;2.80;;;11.80;99.90;;;;;;5079002;28;20024;-87
2024/03/27 00:07:46;;;;;;;5.70;2.63;;;11.80;99.90;;;;;;5079043;28;20022;-87
2024/03/27 00:10:13;;;;;;;5.93;3.00;;;11.80;99.90;;;;;;5096265;28;20490;-87
2024/03/27 00:12:39;;;;;;;7.68;3.08;;;11.90;99.90;;;;;;5078618;28;20118;-87
2024/03/27 00:15:05;;;;;;;6.43;2.70;;;11.80;99.90;;;;;;5078162;28;20040;-86
2024/03/27 00:17:31;;;;;;;5.70;3.08;;;11.80;99.90;;;;;;5096711;28;20024;-83
2024/03/27 00:19:57;;;;;;;7.22;3.15;;;11.80;99.90;;;;;;5098183;28;20030;-84
2024/03/27 00:22:22;;;;;;;7.80;3.30;;;11.80;99.90;;;;;;5078800;28;20020;-83
2024/03/27 00:24:48;;;;;;;9.55;3.17;;;11.80;99.90;;;;;;5078370;28;20031;-83
2024/03/27 00:27:13;;;;;;;5.47;3.10;;;11.80;99.90;;;;;;5078234;28;20153;-85
2024/03/27 00:29:39;;;;;;;7.70;2.95;;;11.80;99.90;;;;;;5078632;28;20352;-84
2024/03/27 00:32:05;;;;;;;5.32;3.08;;;11.80;99.90;;;;;;5077437;28;20023;-87
2024/03/27 00:34:31;;;;;;;8.85;3.40;;;11.80;99.90;;;;;;5078230;28;20486;-83
2024/03/27 00:36:59;;;;;;;5.63;3.00;;;11.70;99.90;;;;;;5095727;28;20020;-83
2024/03/27 00:39:25;;;;;;;5.90;2.95;;;11.70;99.90;;;;;;5078357;28;20111;-84
2024/03/27 00:41:51;;;;;;;5.40;3.10;;;11.70;99.90;;;;;;5076711;28;20028;-83
2024/03/27 00:44:16;;;;;;;4.80;3.60;;;11.70;99.90;;;;;;5094727;28;20052;-83
2024/03/27 00:46:42;;;;;;;10.18;3.40;;;11.70;99.90;;;;;;5077749;28;20023;-83
2024/03/27 00:49:07;;;;;;;6.63;3.30;;;11.70;99.90;;;;;;5077360;28;20464;-83
2024/03/27 00:51:33;;;;;;;6.35;2.95;;;11.80;99.90;;;;;;5078227;28;20068;-83
2024/03/27 00:53:59;;;;;;;9.88;3.80;;;11.80;99.90;;;;;;5077258;28;20024;-83
2024/03/27 00:56:27;;;;;;;6.10;3.00;;;11.70;99.90;;;;;;5095810;28;20024;-83
2024/03/27 00:58:52;;;;;;;8.07;3.85;;;11.70;99.90;;;;;;5077818;28;20104;-84
2024/03/27 01:01:18;;;;;;;11.50;3.63;;;11.70;99.90;;;;;;5095238;28;20082;-83
2024/03/27 01:03:44;;;;;;;6.78;3.58;;;11.80;99.90;;;;;;5077691;28;20028;-83
2024/03/27 01:06:10;;;;;;;6.00;3.42;;;11.80;99.90;;;;;;5094941;28;20023;-84
2024/03/27 01:08:35;;;;;;;6.30;3.30;;;11.80;99.90;;;;;;5077792;28;20026;-83
2024/03/27 01:11:01;;;;;;;9.38;3.90;;;11.80;99.90;;;;;;5094947;28;20035;-83
2024/03/27 01:13:26;;;;;;;7.25;3.65;;;11.80;99.90;;;;;;5077398;28;20494;-83
2024/03/27 01:15:52;;;;;;;5.55;3.10;;;11.70;99.90;;;;;;5095137;28;20024;-83
2024/03/27 01:18:18;;;;;;;9.45;3.38;;;11.70;99.90;;;;;;5076969;28;20059;-83
2024/03/27 01:20:45;;;;;;;7.20;3.03;;;11.60;99.90;;;;;;5077393;28;20024;-83
2024/03/27 01:23:11;;;;;;;7.35;3.25;;;11.60;99.90;;;;;;5076828;28;20615;-84
2024/03/27 01:25:37;;;;;;;5.70;3.40;;;11.50;99.90;;;;;;5094939;28;20103;-83
2024/03/27 01:28:06;;;;;;;6.30;3.17;;;11.50;99.90;;;;;;5076444;28;20157;-84
2024/03/27 01:30:32;;;;;;;6.75;3.35;;;11.50;99.90;;;;;;5076524;28;20024;-84
2024/03/27 01:32:58;;;;;;;4.72;2.97;;;11.50;99.90;;;;;;5077020;28;20016;-85
2024/03/27 01:35:25;;;;;;;5.70;2.80;;;11.50;99.90;;;;;;5077129;28;20016;-84
2024/03/27 01:37:50;;;;;;;7.72;3.33;;;11.50;99.90;;;;;;5077052;28;20024;-84
2024/03/27 01:40:16;;;;;;;9.15;3.35;;;11.50;99.90;;;;;;5076331;28;20115;-85
2024/03/27 01:42:42;;;;;;;6.72;3.30;;;11.50;99.90;;;;;;5076886;28;20020;-85
2024/03/27 01:45:12;;;;;;;8.80;3.50;;;11.50;99.90;;;;;;5076111;28;20358;-85
2024/03/27 01:47:38;;;;;;;4.60;2.60;;;11.50;99.90;;;;;;5094877;28;20023;-85
2024/03/27 01:50:05;;;;;;;7.03;3.00;;;11.50;99.90;;;;;;5076316;28;20028;-85
2024/03/27 01:52:32;;;;;;;7.10;3.42;;;11.40;99.90;;;;;;5076284;28;20091;-85
2024/03/27 01:54:58;;;;;;;5.40;3.25;;;11.40;99.90;;;;;;5095051;28;20024;-85
2024/03/27 01:57:24;;;;;;;7.88;2.90;;;11.40;99.90;;;;;;5094029;28;20472;-85
2024/03/27 01:59:50;;;;;;;10.27;3.70;;;11.30;99.90;;;;;;5076696;28;20062;-83
2024/03/27 02:02:17;;;;;;;6.15;3.33;;;11.20;99.90;;;;;;5093888;28;20024;-81
2024/03/27 02:04:42;;;;;;;6.80;3.75;;;11.20;99.90;;;;;;5093977;28;20123;-82
2024/03/27 02:07:08;;;;;;;5.78;3.75;;;11.10;99.90;;;;;;5075982;28;20036;-82
2024/03/27 02:09:34;;;;;;;7.50;3.30;;;11.00;99.90;;;;;;5076474;28;20381;-82
2024/03/27 02:11:59;;;;;;;5.57;3.00;;;11.00;99.90;;;;;;5094270;28;20043;-81
2024/03/27 02:14:25;;;;;;;5.90;3.28;;;11.00;99.90;;;;;;5093634;28;20024;-82
2024/03/27 02:16:51;;;;;;;5.25;3.05;;;11.00;99.90;;;;;;5094338;28;20020;-85
2024/03/27 02:19:16;;;;;;;7.75;3.30;;;11.00;99.90;;;;;;5093859;28;20534;-84
2024/03/27 02:21:42;;;;;;;7.93;3.10;;;11.00;99.90;;;;;;5076412;28;20028;-82
2024/03/27 02:24:31;;;;;;;7.55;3.22;;;11.00;99.90;;;;;;5093977;28;20099;-82
2024/03/27 02:26:58;;;;;;;5.03;3.08;;;11.00;99.90;;;;;;5076380;28;20024;-84
2024/03/27 02:29:23;;;;;;;5.75;3.35;;;11.00;99.90;;;;;;5093527;28;20024;-83
2024/03/27 02:31:49;;;;;;;6.25;3.05;;;11.00;99.90;;;;;;5094062;28;20103;-83
2024/03/27 02:34:15;;;;;;;5.82;3.22;;;11.00;99.90;;;;;;5093895;28;20020;-83
2024/03/27 02:36:40;;;;;;;6.07;3.10;;;11.00;99.90;;;;;;5076030;28;20490;-83
2024/03/27 02:39:07;;;;;;;7.28;2.70;;;11.00;99.90;;;;;;5075907;28;20020;-83
2024/03/27 02:41:33;;;;;;;4.70;2.88;;;10.90;99.90;;;;;;5094268;28;20446;-82
2024/03/27 02:43:59;;;;;;;10.68;3.65;;;10.90;99.90;;;;;;5072615;28;20095;-85
2024/03/27 02:46:24;;;;;;;6.18;3.58;;;10.80;99.90;;;;;;5073347;28;20078;-85
2024/03/27 02:48:50;;;;;;;5.80;3.10;;;10.70;99.90;;;;;;5072807;28;20362;-85
2024/03/27 02:51:16;;;;;;;5.60;3.17;;;10.70;99.90;;;;;;5073132;28;20041;-85
2024/03/27 02:53:41;;;;;;;5.88;3.53;;;10.60;99.90;;;;;;5072635;28;20021;-85
2024/03/27 02:56:07;;;;;;;7.72;3.38;;;10.60;99.90;;;;;;5072453;28;20442;-85
2024/03/27 02:58:33;;;;;;;9.57;3.30;;;10.50;99.90;;;;;;5072463;28;20017;-85
2024/03/27 03:00:59;;;;;;;7.18;3.08;;;10.50;99.90;;;;;;5072862;28;20124;-85
2024/03/27 03:03:24;;;;;;;6.43;3.30;;;10.50;99.90;;;;;;5072371;28;20472;-85
2024/03/27 03:05:50;;;;;;;6.20;3.30;;;10.50;99.90;;;;;;5075169;28;20048;-85
2024/03/27 03:08:15;;;;;;;6.30;3.10;;;10.50;99.90;;;;;;5076736;28;20024;-85
2024/03/27 03:10:41;;;;;;;5.45;2.78;;;10.40;99.90;;;;;;5076170;28;20032;-85
2024/03/27 03:13:07;;;;;;;7.78;3.30;;;10.40;99.90;;;;;;5076219;28;20074;-85
2024/03/27 03:15:32;;;;;;;5.22;2.90;;;10.40;99.90;;;;;;5076376;28;20051;-85
2024/03/27 03:17:58;;;;;;;4.75;2.97;;;10.40;99.90;;;;;;5077498;28;20108;-85
2024/03/27 03:20:23;;;;;;;5.43;2.58;;;10.30;99.90;;;;;;5076706;28;20074;-84
2024/03/27 03:22:52;;;;;;;5.47;2.95;;;10.30;99.90;;;;;;5076447;28;20028;-82
2024/03/27 03:25:18;;;;;;;6.05;3.17;;;10.20;99.90;;;;;;5075562;28;20020;-82
2024/03/27 03:27:43;;;;;;;6.03;3.20;;;10.20;99.90;;;;;;5076221;28;20032;-82
2024/03/27 03:30:09;;;;;;;7.03;3.25;;;10.10;99.90;;;;;;5075091;28;20181;-82
2024/03/27 03:32:35;;;;;;;8.52;3.22;;;10.00;99.90;;;;;;5075804;28;20025;-83
2024/03/27 03:35:00;;;;;;;6.90;2.83;;;9.90;99.90;;;;;;5077184;28;20028;-84
2024/03/27 03:37:26;;;;;;;6.65;3.28;;;9.90;99.90;;;;;;5075342;28;20021;-83
2024/03/27 03:39:52;;;;;;;4.40;3.00;;;9.70;99.90;;;;;;5075674;28;20029;-84
2024/03/27 03:42:17;;;;;;;5.45;3.00;;;9.80;99.90;;;;;;5075297;28;20519;-83
2024/03/27 03:44:43;;;;;;;7.32;2.92;;;9.70;99.90;;;;;;5075277;28;20044;-83
2024/03/27 03:47:08;;;;;;;5.82;2.90;;;9.70;99.90;;;;;;5076470;28;20031;-83
2024/03/27 03:49:34;;;;;;;6.57;2.75;;;9.70;99.90;;;;;;5076762;28;20088;-82
2024/03/27 03:51:59;;;;;;;5.93;3.45;;;9.70;99.90;;;;;;5075751;28;20017;-85
2024/03/27 03:54:25;;;;;;;5.68;3.15;;;9.70;99.90;;;;;;5075274;28;20073;-87
2024/03/27 03:56:50;;;;;;;6.18;3.13;;;9.50;99.90;;;;;;5075639;28;20035;-88
2024/03/27 03:59:16;;;;;;;6.97;3.00;;;9.50;99.90;;;;;;5074499;28;20450;-88
2024/03/27 04:01:42;;;;;;;5.15;2.60;;;9.50;99.90;;;;;;5075380;28;20021;-87
2024/03/27 04:04:07;;;;;;;6.45;2.75;;;9.50;99.90;;;;;;5075142;28;20088;-83
2024/03/27 04:06:33;;;;;;;4.88;3.08;;;9.30;99.90;;;;;;5075094;28;20028;-81
2024/03/27 04:08:59;;;;;;;4.07;2.72;;;9.30;99.90;;;;;;5076125;28;20021;-82
2024/03/27 04:11:25;;;;;;;3.88;2.65;;;9.30;99.90;;;;;;5074630;28;20060;-81
2024/03/27 04:13:51;;;;;;;9.27;2.70;;;9.40;99.90;;;;;;5074958;28;20028;-81
2024/03/27 04:16:17;;;;;;;5.43;3.08;;;9.30;99.90;;;;;;5074583;28;20085;-81
2024/03/27 04:18:43;;;;;;;5.97;3.28;;;9.40;99.90;;;;;;5074802;28;20457;-81
2024/03/27 04:21:09;;;;;;;7.63;3.30;;;9.40;99.90;;;;;;5074456;28;20032;-83
2024/03/27 04:23:34;;;;;;;5.85;3.08;;;9.50;99.90;;;;;;5076033;28;20020;-81
2024/03/27 04:26:00;;;;;;;8.70;3.00;;;9.50;99.90;;;;;;5075997;28;20024;-81
2024/03/27 04:28:26;;;;;;;7.80;3.15;;;9.50;99.90;;;;;;5075488;28;20442;-81
2024/03/27 04:30:55;;;;;;;6.40;2.80;;;9.50;99.90;;;;;;5074900;28;20032;-81
2024/03/27 04:33:20;;;;;;;6.97;3.17;;;9.60;99.90;;;;;;5075378;28;20020;-84
2024/03/27 04:35:47;;;;;;;4.53;2.83;;;9.70;99.90;;;;;;5074736;28;20024;-84
2024/03/27 04:38:13;;;;;;;5.93;3.22;;;9.70;99.90;;;;;;5074409;28;20027;-84
2024/03/27 04:40:39;;;;;;;5.65;2.90;;;9.70;99.90;;;;;;5075851;28;20033;-84
2024/03/27 04:43:04;;;;;;;7.85;3.20;;;9.70;99.90;;;;;;5075716;28;20471;-85
2024/03/27 04:45:30;;;;;;;5.05;3.13;;;9.70;99.90;;;;;;5073502;28;20052;-85
2024/03/27 04:47:56;;;;;;;8.13;3.05;;;9.70;99.90;;;;;;5075816;28;20472;-88
2024/03/27 04:50:22;;;;;;;8.20;3.30;;;9.60;99.90;;;;;;5074063;28;20033;-87
2024/03/27 04:52:48;;;;;;;4.88;2.83;;;9.50;99.90;;;;;;5075623;28;20054;-89
2024/03/27 04:55:13;;;;;;;6.25;3.10;;;9.40;99.90;;;;;;5074169;28;20449;-88
2024/03/27 04:57:39;;;;;;;5.95;3.13;;;9.30;99.90;;;;;;5074528;28;20028;-86
2024/03/27 05:00:08;;;;;;;5.45;3.33;;;9.30;99.90;;;;;;5074596;28;20035;-86
2024/03/27 05:02:34;;;;;;;8.32;3.20;;;9.30;99.90;;;;;;5073720;28;20021;-85
2024/03/27 05:04:59;;;;;;;5.22;2.70;;;9.30;99.90;;;;;;5074166;28;20043;-84
2024/03/27 05:07:25;;;;;;;6.72;3.80;;;9.30;99.90;;;;;;5074473;28;20024;-84
2024/03/27 05:09:51;;;;;;;10.48;3.10;;;9.30;99.90;;;;;;5074946;28;20526;-84
2024/03/27 05:12:17;;;;;;;7.25;2.72;;;9.30;99.90;;;;;;5074616;28;20051;-84
2024/03/27 05:14:42;;;;;;;5.13;2.85;;;9.30;99.90;;;;;;5073970;28;20036;-87
2024/03/27 05:17:08;;;;;;;6.90;2.92;;;9.10;99.90;;;;;;5074126;28;20093;-87
2024/03/27 05:19:35;;;;;;;7.75;3.17;;;9.20;99.90;;;;;;5073839;28;20449;-86
2024/03/27 05:22:00;;;;;;;5.78;2.60;;;9.20;99.90;;;;;;5073916;28;20086;-84
2024/03/27 05:24:26;;;;;;;7.45;2.92;;;9.20;99.90;;;;;;5073741;28;20046;-85
2024/03/27 05:26:52;;;;;;;8.13;3.10;;;9.20;99.90;;;;;;5073748;28;20024;-85
2024/03/27 05:29:18;;;;;;;6.18;3.30;;;9.20;99.90;;;;;;5073250;28;20346;-85
2024/03/27 05:31:54;;;;;;;6.05;3.72;;;9.30;99.90;;;;;;5073732;28;20027;-86
2024/03/27 05:34:21;;;;;;;6.57;3.30;;;9.30;99.90;;;;;;5073095;28;20027;-87
2024/03/27 05:36:46;;;;;;;6.28;3.60;;;9.40;99.90;;;;;;5073517;28;20559;-84
2024/03/27 05:39:13;;;;;;;6.82;3.92;;;9.40;99.90;;;;;;5073575;28;20028;-84
2024/03/27 05:41:39;;;;;;;7.93;3.70;;;9.40;99.90;;;;;;5073229;28;20492;-84
2024/03/27 05:44:08;;;;;;;7.93;3.75;;;9.40;99.90;;;;;;5073339;28;20049;-84
2024/03/27 05:46:34;;;;;;;6.80;3.50;;;9.30;99.90;;;;;;5073030;28;20035;-84
2024/03/27 05:49:02;;;;;;;5.05;3.15;;;9.40;99.90;;;;;;5073656;28;20087;-82
2024/03/27 05:51:29;;;;;;;6.28;3.03;;;9.40;99.90;;;;;;5072588;28;20032;-82
2024/03/27 05:53:55;;;;;;;7.68;3.50;;;9.30;99.90;;;;;;5074336;28;20065;-82
2024/03/27 05:56:22;;;;;;;6.18;2.83;;;9.30;99.90;;;;;;5072807;28;20017;-82
2024/03/27 05:58:48;;;;;;;6.15;3.00;;;9.40;99.90;;;;;;5074274;28;20020;-84
2024/03/27 06:01:14;;;;;;;7.50;3.20;;;9.30;99.90;;;;;;5073530;28;20052;-82
2024/03/27 06:03:40;;;;;;;6.35;3.20;;;9.30;99.90;;;;;;5074393;28;20461;-82
2024/03/27 06:06:06;;;;;;;7.88;3.42;;;9.40;99.90;;;;;;5074152;28;20028;-82
2024/03/27 06:08:32;;;;;;;5.55;3.35;;;9.40;99.90;;;;;;5073564;28;20025;-83
2024/03/27 06:10:57;;;;;;;6.55;3.00;;;9.50;99.90;;;;;;5072998;28;20355;-82
2024/03/27 06:13:23;;;;;;;6.82;3.10;;;9.50;99.90;;;;;;5072569;28;20050;-82
2024/03/27 06:15:49;;;;;;;6.90;2.90;;;9.50;99.90;;;;;;5072961;28;20031;-82
2024/03/27 06:18:14;;;;;;;5.72;2.53;;;9.50;99.90;;;;;;5072627;28;20119;-83
2024/03/27 06:20:45;;;;;;;7.82;3.33;;;9.60;99.90;;;;;;5074166;28;20016;-82
2024/03/27 06:23:11;;;;;;;5.70;3.13;;;9.60;99.90;;;;;;5073100;28;20027;-82
2024/03/27 06:25:36;;;;;;;8.15;3.10;;;9.50;99.90;;;;;;5072655;28;20025;-82
2024/03/27 06:28:02;;;;;;;3.72;2.58;;;9.50;99.90;;;;;;5072564;28;20491;-81
2024/03/27 06:30:27;;;;;;;5.93;3.05;;;9.50;99.90;;;;;;5073566;28;20111;-82
2024/03/27 06:32:54;;;;;;;6.93;2.92;;;9.60;99.90;;;;;;5073240;28;20017;-82
2024/03/27 06:35:21;;;;;;;5.47;3.13;;;9.50;99.90;;;;;;5072022;28;20028;-83
2024/03/27 06:37:46;;;;;;;6.72;3.75;;;9.60;99.90;;;;;;5073684;28;20016;-81
2024/03/27 06:40:12;;;;;;;9.73;3.22;;;9.60;99.90;;;;;;5075375;28;20035;-82
2024/03/27 06:42:39;;;;;;;5.72;3.30;;;9.60;99.90;;;;;;5076175;28;20140;-82
2024/03/27 06:45:05;;;;;;;6.22;2.85;;;9.70;99.90;;;;;;5076811;28;20041;-82
2024/03/27 06:47:32;;;;;;;7.18;3.50;;;9.60;99.90;;;;;;5077683;28;20029;-81
2024/03/27 06:49:58;;;;;;;6.80;3.20;;;9.70;99.90;;;;;;5076730;28;20105;-81
2024/03/27 06:52:25;;;;;;;6.13;3.20;;;9.80;99.90;;;;;;5076044;28;20074;-82
2024/03/27 06:54:51;;;;;;;4.03;2.85;;;9.90;99.90;;;;;;5077688;28;20106;-84
2024/03/27 06:57:18;;;;;;;7.68;3.92;;;9.90;99.90;;;;;;5077590;28;20021;-85
2024/03/27 06:59:44;;;;;;;8.13;3.78;;;9.90;99.90;;;;;;5076581;28;20028;-87
2024/03/27 07:02:09;;;;;;;5.80;3.83;;;9.90;99.90;;;;;;5077681;28;20038;-87
2024/03/27 07:04:35;;;;;;;7.40;3.90;;;9.90;99.90;;;;;;5075039;28;20439;-88
2024/03/27 07:07:00;;;;;;;6.47;3.33;;;10.00;99.90;;;;;;5075853;28;20024;-87
2024/03/27 07:09:26;;;;;;;7.20;3.83;;;10.00;99.90;;;;;;5077089;28;20052;-85
2024/03/27 07:11:52;;;;;;;7.75;3.75;;;10.00;99.90;;;;;;5075769;28;20020;-85
2024/03/27 07:14:19;;;;;;;9.00;3.63;;;10.10;99.90;;;;;;5076713;28;20056;-85
2024/03/27 07:16:44;;;;;;;7.60;3.67;;;10.10;99.90;;;;;;5075808;28;20024;-86
2024/03/27 07:19:10;;;;;;;9.63;4.05;;;10.20;99.90;;;;;;5077124;28;20029;-86
2024/03/27 07:21:36;;;;;;;7.85;3.85;;;10.30;99.90;;;;;;5075427;28;20028;-86
2024/03/27 07:24:04;;;;;;;7.20;4.30;;;10.30;99.90;;;;;;5076142;28;20024;-86
2024/03/27 07:26:31;;;;;;;7.15;4.22;;;10.40;99.90;;;;;;5075653;28;20017;-85
2024/03/27 07:28:56;;;;;;;8.68;4.18;;;10.40;99.90;;;;;;5077207;28;20020;-83
2024/03/27 07:31:22;;;;;;;7.32;3.70;;;10.40;99.90;;;;;;5076814;28;20373;-84
2024/03/27 07:33:47;;;;;;;7.57;4.10;;;10.40;99.90;;;;;;5076395;28;20062;-84
2024/03/27 07:36:13;;;;;;;8.85;4.00;;;10.40;99.90;;;;;;5077025;28;20457;-83
2024/03/27 07:38:39;;;;;;;9.25;5.00;;;10.40;99.90;;;;;;5075514;28;20020;-84
2024/03/27 07:41:04;;;;;;;7.75;3.88;;;10.30;99.90;;;;;;5076092;28;20028;-83
2024/03/27 07:43:30;;;;;;;9.60;4.00;;;10.40;99.90;;;;;;5075213;28;20056;-84
2024/03/27 07:45:55;;;;;;;7.20;4.05;;;10.40;99.90;;;;;;5075419;28;20040;-83
2024/03/27 07:48:21;;;;;;;6.97;3.45;;;10.40;99.90;;;;;;5075323;28;20453;-85
2024/03/27 07:50:46;;;;;;;8.88;3.75;;;10.50;99.90;;;;;;5075087;28;20051;-84
2024/03/27 07:53:12;;;;;;;8.25;3.50;;;10.50;99.90;;;;;;5075815;28;20020;-83
2024/03/27 07:55:37;;;;;;;4.72;3.10;;;10.50;99.90;;;;;;5075366;28;20111;-83
2024/03/27 07:58:03;;;;;;;6.55;3.58;;;10.60;99.90;;;;;;5076149;28;20017;-83
2024/03/27 08:00:29;;;;;;;6.13;3.30;;;10.70;99.90;;;;;;5075287;28;20170;-84
2024/03/27 08:02:54;;;;;;;8.77;3.50;;;10.80;99.90;;;;;;5075812;28;20347;-83
2024/03/27 08:05:20;;;;;;;7.35;3.25;;;10.80;99.90;;;;;;5075561;28;20032;-84
2024/03/27 08:07:46;;;;;;;6.20;3.35;;;10.80;99.90;;;;;;5074866;28;20107;-84
2024/03/27 08:10:13;;;;;;;8.63;3.60;;;10.90;99.90;;;;;;5075598;28;20033;-84
2024/03/27 08:12:38;;;;;;;8.10;3.33;;;11.00;99.90;;;;;;5074959;28;20036;-83
2024/03/27 08:15:05;;;;;;;5.53;2.85;;;11.00;99.90;;;;;;5075541;28;20033;-83
2024/03/27 08:17:31;;;;;;;7.60;3.67;;;11.10;99.90;;;;;;5075350;28;20137;-83
2024/03/27 08:19:57;;;;;;;8.05;3.38;;;11.10;99.90;;;;;;5075326;28;20025;-83
2024/03/27 08:22:23;;;;;;;4.90;2.60;;;11.20;99.90;;;;;;5074573;28;20020;-85
2024/03/27 08:24:51;;;;;;;5.72;3.00;;;11.20;99.90;;;;;;5075136;28;20024;-84
2024/03/27 08:27:17;;;;;;;8.10;3.15;;;11.30;99.90;;;;;;5074555;28;20032;-83
2024/03/27 08:29:43;;;;;;;8.50;3.35;;;11.40;99.90;;;;;;5075398;28;20111;-83
2024/03/27 08:32:08;;;;;;;6.97;3.03;;;11.50;99.90;;;;;;5076034;28;20063;-83
2024/03/27 08:34:34;;;;;;;9.05;3.20;;;11.40;99.90;;;;;;5074158;28;20052;-83
2024/03/27 08:37:00;;;;;;;8.98;3.35;;;11.50;99.90;;;;;;5074802;28;20020;-84
2024/03/27 08:39:26;;;;;;;13.40;3.40;;;11.50;99.90;;;;;;5074333;28;20024;-84
2024/03/27 08:41:54;;;;;;;9.80;3.03;;;11.50;99.90;;;;;;5074914;28;20472;-83
2024/03/27 08:44:19;;;;;;;4.88;2.67;;;11.60;99.90;;;;;;5082472;28;20044;-84
2024/03/27 08:46:45;;;;;;;9.13;2.83;;;11.70;99.90;;;;;;5077527;28;20020;-84
2024/03/27 08:49:13;;;;;;;7.45;2.30;;;11.80;99.90;;;;;;5095923;28;20024;-83
2024/03/27 08:51:39;;;;;;;3.92;2.08;;;11.90;99.90;;;;;;5095151;28;20036;-84
2024/03/27 08:54:05;;;;;;;3.83;2.50;;;11.90;99.90;;;;;;5077790;28;20020;-85
2024/03/27 08:56:31;;;;;;;3.92;2.45;;;12.00;99.90;;;;;;5077441;28;20440;-84
2024/03/27 08:58:56;;;;;;;5.25;2.50;;;12.00;99.90;;;;;;5077679;28;20031;-84
2024/03/27 09:01:22;;;;;;;3.88;2.30;;;12.10;99.90;;;;;;5078028;28;20028;-84
2024/03/27 09:03:47;;;;;;;3.53;2.38;;;12.10;99.90;;;;;;5076346;28;20024;-83
2024/03/27 09:06:14;;;;;;;3.55;2.45;;;12.20;99.90;;;;;;5078007;28;20024;-84
2024/03/27 09:08:40;;;;;;;3.50;2.05;;;12.40;99.90;;;;;;5077306;28;20441;-83
2024/03/27 09:11:07;;;;;;;5.90;2.60;;;12.40;99.90;;;;;;5095601;28;20032;-84
2024/03/27 09:13:33;;;;;;;3.40;2.35;;;12.40;99.90;;;;;;5094623;28;20460;-85
2024/03/27 09:15:59;;;;;;;3.50;2.60;;;12.50;99.90;;;;;;5077367;28;20024;-84
2024/03/27 09:18:25;;;;;;;4.32;2.50;;;12.50;99.90;;;;;;5077410;28;20024;-85
2024/03/27 09:20:55;;;;;;;4.78;2.50;;;12.60;99.90;;;;;;5077000;28;20475;-84
2024/03/27 09:23:22;;;;;;;4.43;2.60;;;12.60;99.90;;;;;;5077159;28;20024;-84
2024/03/27 09:25:59;;;;;;;6.18;2.50;;;12.70;99.90;;;;;;5076824;28;20028;-84
2024/03/27 09:28:25;;;;;;;7.18;2.90;;;12.60;99.90;;;;;;5095174;28;20020;-84
2024/03/27 09:30:51;;;;;;;3.60;2.63;;;12.70;99.90;;;;;;5094578;28;20032;-84
2024/03/27 09:33:17;;;;;;;5.30;2.58;;;12.70;99.90;;;;;;5095018;28;20043;-84
2024/03/27 09:35:45;;;;;;;3.70;2.67;;;12.70;99.90;;;;;;5094492;28;20028;-84
2024/03/27 09:38:10;;;;;;;4.65;2.58;;;12.80;99.90;;;;;;5077090;28;20032;-84
2024/03/27 09:40:40;;;;;;;5.00;2.50;;;12.80;99.90;;;;;;5076375;28;20123;-84
2024/03/27 09:43:06;;;;;;;11.55;3.00;;;12.80;99.90;;;;;;5076599;28;20027;-84
2024/03/27 09:45:34;;;;;;;7.13;2.53;;;12.70;99.90;;;;;;5076058;28;20048;-83
2024/03/27 09:48:00;;;;;;;4.75;3.03;;;12.60;99.90;;;;;;5095008;28;20016;-84
2024/03/27 09:50:27;;;;;;;4.55;2.47;;;12.50;99.90;;;;;;5076898;28;20028;-83
2024/03/27 09:52:54;;;;;;;5.88;4.00;;;12.40;99.90;;;;;;5076701;28;20134;-84
2024/03/27 09:55:21;;;;;;;4.45;3.13;;;12.30;99.90;;;;;;5076834;28;20461;-84
2024/03/27 09:57:47;;;;;;;5.25;3.47;;;12.30;99.90;;;;;;5071198;28;20024;-84
2024/03/27 10:00:13;;;;;;;8.52;4.43;;;12.20;99.90;;;;;;5084597;28;20471;-84
2024/03/27 10:02:38;;;;;;;8.00;4.00;;;12.10;99.90;;;;;;5085188;28;20021;-85
2024/03/27 10:05:09;;;;;;;10.80;5.25;;;12.00;99.90;;;;;;5083648;28;20074;-85
2024/03/27 10:07:36;;;;;;;8.20;4.50;;;11.90;99.90;;;;;;5084486;28;20016;-85
2024/03/27 10:10:03;;;;;;;5.88;3.67;;;11.90;99.90;;;;;;5065910;28;20567;-85
2024/03/27 10:12:28;;;;;;;5.32;3.42;;;11.80;99.90;;;;;;5063046;28;20028;-87
2024/03/27 10:14:54;;;;;;;6.13;3.85;;;11.60;99.90;;;;;;5065293;28;20047;-84
2024/03/27 10:17:19;;;;;;;5.35;3.20;;;11.60;99.90;;;;;;5067046;28;20016;-85
2024/03/27 10:19:45;;;;;;;6.07;2.88;;;11.60;99.90;;;;;;5082382;28;20023;-85
2024/03/27 10:22:11;;;;;;;5.93;3.38;;;11.50;99.90;;;;;;5065876;28;20016;-85
2024/03/27 10:24:37;;;;;;;6.93;2.83;;;11.40;99.90;;;;;;5063611;28;20016;-85
2024/03/27 10:27:03;;;;;;;8.77;3.15;;;11.40;99.90;;;;;;5066797;28;20441;-85
2024/03/27 10:29:29;;;;;;;3.90;2.58;;;11.50;99.90;;;;;;5084464;28;20023;-87
2024/03/27 10:31:55;;;;;;;5.15;2.67;;;11.50;99.90;;;;;;5066006;28;20102;-85
2024/03/27 10:34:21;;;;;;;5.45;2.70;;;11.50;99.90;;;;;;5082640;28;20103;-83
2024/03/27 10:36:50;;;;;;;4.53;2.40;;;11.40;99.90;;;;;;5068505;28;20044;-85
2024/03/27 10:39:16;;;;;;;5.65;2.50;;;11.50;99.90;;;;;;5066677;28;20024;-85
2024/03/27 10:41:42;;;;;;;4.15;2.97;;;11.40;99.90;;;;;;5081256;28;20076;-85
2024/03/27 10:44:11;;;;;;;5.05;2.25;;;11.50;99.90;;;;;;5061006;28;20048;-84
2024/03/27 10:46:41;;;;;;;3.75;2.40;;;11.40;99.90;;;;;;5055573;28;20120;-84
2024/03/27 10:49:08;;;;;;;5.28;2.40;;;11.40;99.90;;;;;;5073793;28;20024;-85
2024/03/27 10:51:35;;;;;;;4.40;2.80;;;11.30;99.90;;;;;;5060751;28;20020;-85
2024/03/27 10:54:01;;;;;;;3.35;2.22;;;11.40;99.90;;;;;;5088281;28;20081;-85
2024/03/27 10:56:28;;;;;;;3.35;2.13;;;11.40;99.90;;;;;;5093770;28;20020;-84
2024/03/27 10:58:55;;;;;;;4.55;2.22;;;11.30;99.90;;;;;;5075359;28;20024;-85
2024/03/27 11:01:22;;;;;;;4.18;2.03;;;11.30;99.90;;;;;;5075838;28;20032;-85
2024/03/27 11:03:52;;;;;;;3.80;2.20;;;11.30;99.90;;;;;;5075523;28;20017;-85
2024/03/27 11:06:17;;;;;;;4.63;1.80;;;11.20;99.90;;;;;;5075756;28;20020;-84
2024/03/27 11:08:44;;;;;;;2.50;1.80;;;11.20;99.90;;;;;;5075020;28;20054;-85
2024/03/27 11:11:14;;;;;;;2.67;1.55;;;11.20;99.90;;;;;;5075642;28;20032;-84
2024/03/27 11:13:47;;;;;;;3.47;1.88;;;11.20;99.90;;;;;;5075062;28;20143;-85
2024/03/27 11:16:13;;;;;;;3.00;1.70;;;11.20;99.90;;;;;;5075653;28;20035;-85
2024/03/27 11:18:44;;;;;;;3.00;1.77;;;11.20;99.90;;;;;;5093254;28;20065;-84
2024/03/27 11:21:11;;;;;;;3.00;1.42;;;11.20;99.90;;;;;;5075766;28;20028;-84
2024/03/27 11:23:37;;;;;;;1.90;1.15;;;11.10;99.90;;;;;;5075266;28;20024;-85
2024/03/27 11:26:03;;;;;;;1.67;1.25;;;11.10;99.90;;;;;;5077055;28;20080;-84
2024/03/27 11:28:31;;;;;;;3.00;1.30;;;11.00;99.90;;;;;;5079857;28;20024;-83
2024/03/27 11:30:57;;;;;;;2.25;1.15;;;11.00;99.90;;;;;;5078897;28;20027;-84
2024/03/27 11:33:24;;;;;;;2.53;0.90;;;10.90;99.90;;;;;;5079388;28;20024;-85
2024/03/27 11:35:51;;;;;;;1.67;0.80;;;10.90;99.90;;;;;;5096987;28;20473;-84
2024/03/27 11:38:21;;;;;;;1.00;0.88;;;10.90;99.90;;;;;;5079595;28;20024;-84
2024/03/27 11:40:50;;;;;;;1.13;0.80;;;10.80;99.90;;;;;;5078330;28;20020;-84
2024/03/27 11:43:17;;;;;;;0.65;0.60;;;10.70;99.90;;;;;;5075614;28;20020;-84
2024/03/27 11:45:43;;;;;;;1.95;0.80;;;10.60;99.90;;;;;;5060688;28;20049;-84
2024/03/27 11:48:08;;;;;;;0.57;0.50;;;10.60;99.90;;;;;;5065738;28;20464;-85
2024/03/27 11:50:34;;;;;;;1.38;0.70;;;10.60;99.90;;;;;;5065301;28;20021;-86
2024/03/27 11:53:00;;;;;;;1.95;0.68;;;10.70;99.90;;;;;;5068156;28;20024;-85
2024/03/27 11:55:25;;;;;;;2.35;0.60;;;10.70;99.90;;;;;;5066777;28;20016;-84
2024/03/27 11:57:51;;;;;;;0.93;0.60;;;10.90;99.90;;;;;;5065969;28;20491;-85
2024/03/27 12:00:18;;;;;;;1.33;0.55;;;11.00;99.90;;;;;;5067511;28;20023;-85
2024/03/27 12:02:44;;;;;;;0.82;0.75;;;10.90;99.90;;;;;;5064376;28;20446;-85
2024/03/27 12:05:10;;;;;;;1.10;0.88;;;11.00;99.90;;;;;;5063555;28;20017;-86
2024/03/27 12:07:36;;;;;;;4.57;1.10;;;10.90;99.90;;;;;;5066508;28;20035;-85
2024/03/27 12:10:09;;;;;;;1.20;1.10;;;10.90;99.90;;;;;;5063391;28;20027;-84
2024/03/27 12:12:35;;;;;;;2.63;1.00;;;10.90;99.90;;;;;;5065485;28;20097;-87
2024/03/27 12:15:01;;;;;;;1.70;0.75;;;10.80;99.90;;;;;;5067971;28;20449;-85
2024/03/27 12:17:32;;;;;;;2.03;1.10;;;10.80;99.90;;;;;;5065173;28;20020;-85
2024/03/27 12:20:03;;;;;;;4.00;1.20;;;11.00;99.90;;;;;;5064119;28;20021;-85
2024/03/27 12:22:33;;;;;;;3.65;1.58;;;11.10;99.90;;;;;;5063957;28;20023;-85
2024/03/27 12:24:59;;;;;;;3.83;1.45;;;11.10;99.90;;;;;;5062940;28;20021;-84
2024/03/27 12:27:30;;;;;;;1.58;1.02;;;11.00;99.90;;;;;;5064525;28;20104;-84
2024/03/27 12:29:55;;;;;;;2.55;1.10;;;11.10;99.90;;;;;;5056304;28;20025;-85
2024/03/27 12:32:22;;;;;;;1.73;1.15;;;11.30;99.90;;;;;;5054648;28;20146;-83
2024/03/27 12:34:48;;;;;;;2.75;1.27;;;11.50;99.90;;;;;;5054718;28;20052;-84
2024/03/27 12:37:14;;;;;;;2.40;1.35;;;11.50;99.90;;;;;;5054957;28;20021;-85
2024/03/27 12:39:41;;;;;;;2.40;1.23;;;11.30;99.90;;;;;;5054228;28;20021;-85
2024/03/27 12:42:06;;;;;;;1.05;0.82;;;11.50;99.90;;;;;;5055148;28;20063;-83
2024/03/27 12:44:32;;;;;;;1.05;0.95;;;11.60;99.90;;;;;;5054346;28;20394;-83